Nearby METAR Reports

 

KMTN - Baltimore/Martin, Maryland, USA
Distance from station: SSE 8mi, 13km
Updated: Sun, 01-Feb-2015 8:55am EST
Mostly cloudy
Mostly cloudy
 Wind from calm
Wind: Calm
Temperature: 30°F , -1°C
Dew Point: 19°F , -7°C
Humidity: 64%
Barometer: 30.30 inHg , 1026.1 hPa
Clouds: Mostly cloudy
Visibility: 10 miles , 16 km
Cloud details: Partly cloudy 5000 ft
Mostly cloudy 15000 ft
2015/02/01 13:55 KMTN 011355Z 00000KT 10SM SCT050 BKN150 M01/M07 A3030
KDMH - Baltimore/Dwntwn, Maryland, USA
Distance from station: SW 12mi, 19km
Updated: Sun, 01-Feb-2015 8:54am EST

 
Temperature: 30°F , -1°C
Dew Point: 16°F , -9°C
Humidity: 55%
Barometer: 30.28 inHg , 1025.4 hPa
2015/02/01 13:54 KDMH 011354Z AUTO M01/M09 A3028 RMK AO1 SLP254 T10061094
 
KBWI - Balto/Wash Intl, Maryland, USA
Distance from station: SSW 20mi, 33km
Updated: Sun, 01-Feb-2015 8:54am EST
Overcast
Overcast
 Wind from calm
Wind: Calm
Temperature: 28°F , -2°C
Dew Point: 18°F , -8°C
Humidity: 64%
Barometer: 30.28 inHg , 1025.4 hPa
Clouds: Overcast
Visibility: 10 miles , 16 km
Cloud details: Partly cloudy 6000 ft
Mostly cloudy 7500 ft
Overcast 20000 ft
2015/02/01 13:54 KBWI 011354Z 00000KT 10SM SCT060 BKN075 OVC200 M02/M08 A3028 RMK AO2 SLP254 VIRGA S-SW AND NW-N T10171083
KDMW - Carroll Cnty, Maryland, USA
Distance from station: WNW 30mi, 48km
Updated: Sun, 01-Feb-2015 9:35am EST
Partly cloudy
Partly cloudy
 Wind from SW
Wind: SW 6 mph , 9 km/h
Temperature: 32°F , 0°C
Wind Chill: 26°F , -3°C
Dew Point: 12°F , -11°C
Humidity: 44%
Barometer: 30.22 inHg , 1023.4 hPa
Clouds: Partly cloudy
Visibility: 10 miles , 16 km
Cloud details: Partly cloudy 9000 ft
2015/02/01 14:35 KDMW 011435Z AUTO 23005KT 10SM SCT090 00/M11 A3022 RMK AO2
 
KNAK - Annapolis/Naval, Maryland, USA
Distance from station: S 30mi, 48km
Updated: Sun, 01-Feb-2015 8:54am EST
Overcast
Overcast
 Wind from calm
Wind: Calm
Temperature: 30°F , -1°C
Dew Point: 12°F , -11°C
Humidity: 47%
Barometer: 30.29 inHg , 1025.7 hPa
Clouds: Overcast
Visibility: 10 miles , 16 km
Cloud details: Overcast 7500 ft
2015/02/01 13:54 KNAK 011354Z AUTO 00000KT 10SM OVC075 M01/M11 A3029 RMK AO2 SLP258 T10111106
KW29 - Stevensville, Maryland, USA
Distance from station: SSE 31mi, 50km
Updated: Sun, 01-Feb-2015 9:35am EST

 Wind from W
Wind: W 3 mph , 6 km/h
Temperature: 32°F , 0°C
Dew Point: 19°F , -7°C
Humidity: 60%
Barometer: 30.29 inHg , 1025.7 hPa
Visibility: 10 miles , 16 km
2015/02/01 14:35 KW29 011435Z AUTO 27003KT 10SM 00/M07 A3029 RMK AO1
 
KCGS - College Park, Maryland, USA
Distance from station: SW 38mi, 61km
Updated: Sun, 01-Feb-2015 9:35am EST
Mostly cloudy
Mostly cloudy
 Wind from calm
Wind: Calm
Temperature: 32°F , 0°C
Dew Point: 21°F , -6°C
Humidity: 64%
Barometer: 30.28 inHg , 1025.4 hPa
Clouds: Mostly cloudy
Visibility: 10 miles , 16 km
Cloud details: Partly cloudy 4000 ft
Partly cloudy 4600 ft
Mostly cloudy 6000 ft
2015/02/01 14:35 KCGS 011435Z AUTO 00000KT 10SM SCT040 SCT046 BKN060 00/M06 A3028 RMK AO1
KGAI - Gaithersburg, Maryland, USA
Distance from station: WSW 40mi, 65km
Updated: Sun, 01-Feb-2015 9:35am EST
Few Clouds
Few Clouds
 Wind from calm
Wind: Calm
Temperature: 32°F , 0°C
Dew Point: 14°F , -10°C
Humidity: 47%
Barometer: 30.28 inHg , 1025.4 hPa
Clouds: Few Clouds
Visibility: 10 miles , 16 km
Cloud details: Few Clouds 4100 ft
2015/02/01 14:35 KGAI 011435Z 00000KT 10SM FEW041 00/M10 A3028 RMK AO1
 
KTHV - York, Pennsylvania, USA
Distance from station: NNW 40mi, 65km
Updated: Sun, 01-Feb-2015 8:53am EST
Overcast
Overcast
 Wind from calm
Wind: Calm
Temperature: 28°F , -2°C
Dew Point: 19°F , -7°C
Humidity: 69%
Barometer: 30.23 inHg , 1023.7 hPa
Clouds: Overcast
Visibility: 10 miles , 16 km
Cloud details: Overcast 4800 ft
2015/02/01 13:53 KTHV 011353Z AUTO 00000KT 10SM OVC048 M02/M07 A3023 RMK AO2 SLP248 T10221072
KFDK - Frederick, Maryland, USA
Distance from station: W 47mi, 75km
Updated: Sun, 01-Feb-2015 8:45am EST
Overcast
Overcast
 Wind from calm
Wind: Calm
Temperature: 30°F , -1°C
Dew Point: 16°F , -9°C
Humidity: 55%
Barometer: 30.29 inHg , 1025.7 hPa
Clouds: Overcast
Visibility: 10 miles , 16 km
Cloud details: Partly cloudy 5000 ft
Overcast 6000 ft
2015/02/01 13:45 KFDK 011345Z 00000KT 10SM SCT050 OVC060 M01/M09 A3029
 
KESN - Easton/Newnam, Maryland, USA
Distance from station: SSE 48mi, 78km
Updated: Sun, 01-Feb-2015 8:55am EST
Partly cloudy
Partly cloudy
 Wind from calm
Wind: Calm
Temperature: 30°F , -1°C
Dew Point: 21°F , -6°C
Humidity: 69%
Barometer: 30.32 inHg , 1026.8 hPa
Clouds: Partly cloudy
Visibility: 10 miles , 16 km
Cloud details: Partly cloudy 8500 ft
2015/02/01 13:55 KESN 011355Z 00000KT 10SM SCT085 M01/M06 A3032
KDCA - Washington/Natl, Washington D.c., USA
Distance from station: SW 49mi, 79km
Updated: Sun, 01-Feb-2015 8:52am EST
Overcast
Overcast
 Wind from S
Wind: S 3 mph , 6 km/h
Temperature: 34°F , 1°C
Dew Point: 18°F , -8°C
Humidity: 51%
Barometer: 30.30 inHg , 1026.1 hPa
Clouds: Overcast
Visibility: 10 miles , 16 km
Cloud details: Few Clouds 4500 ft
Overcast 6500 ft
2015/02/01 13:52 KDCA 011352Z 19003KT 10SM FEW045 OVC065 01/M08 A3030 RMK AO2 SLP258 T00111083 $
 
KLNS - Lancaster, Pennsylvania, USA
Distance from station: N 49mi, 79km
Updated: Sun, 01-Feb-2015 8:53am EST
Overcast
Overcast
 Wind from calm
Wind: Calm
Temperature: 25°F , -4°C
Dew Point: 16°F , -9°C
Humidity: 69%
Barometer: 30.24 inHg , 1024 hPa
Clouds: Overcast
Visibility: 7 miles , 11 km
Cloud details: Overcast 3600 ft
2015/02/01 13:53 KLNS 011353Z 00000KT 7SM OVC036 M04/M09 A3024 RMK AO2 SLP247 T10441089
KILG - Wilmington, Delaware, USA
Distance from station: ENE 50mi, 81km
Updated: Sun, 01-Feb-2015 8:51am EST
Overcast
Overcast
 Wind from W
Wind: W 7 mph , 11 km/h
Temperature: 28°F , -2°C
Wind Chill: 21°F , -6°C
Dew Point: 14°F , -10°C
Humidity: 55%
Barometer: 30.28 inHg , 1025.4 hPa
Clouds: Overcast
Visibility: 10 miles , 16 km
Cloud details: Overcast 5500 ft
2015/02/01 13:51 KILG 011351Z 27006KT 10SM OVC055 M02/M10 A3028 RMK AO2 SLP254 T10171100